createdAt,value
2023-03-06T00:01:18.314Z,54.97
2023-03-06T00:03:57.196Z,57.35
2023-03-06T00:06:43.919Z,53.05
2023-03-06T00:09:20.750Z,59.92
2023-03-06T00:11:58.214Z,62.03
2023-03-06T00:14:40.015Z,61.53
2023-03-06T00:17:22.522Z,60.50
2023-03-06T00:20:02.210Z,62.30
2023-03-06T00:22:45.014Z,61.90
2023-03-06T00:25:26.075Z,61.45
2023-03-06T00:28:01.573Z,62.00
2023-03-06T00:30:41.730Z,61.53
2023-03-06T00:36:06.482Z,60.67
2023-03-06T00:38:54.007Z,64.32
2023-03-06T00:41:33.870Z,59.72
2023-03-06T00:44:15.387Z,65.85
2023-03-06T00:47:05.925Z,59.80
2023-03-06T00:49:39.131Z,65.25
2023-03-06T00:52:18.424Z,63.03
2023-03-06T00:54:58.797Z,63.83
2023-03-06T00:57:41.361Z,64.72
2023-03-06T01:00:27.722Z,62.35
2023-03-06T01:03:02.049Z,60.22
2023-03-06T01:05:43.977Z,72.75
2023-03-06T01:08:30.473Z,70.18
2023-03-06T01:11:14.822Z,63.25
2023-03-06T01:13:58.332Z,71.35
2023-03-06T01:16:35.634Z,80.50
2023-03-06T01:19:13.268Z,74.65
2023-03-06T01:21:53.538Z,78.50
2023-03-06T01:24:33.322Z,80.43
2023-03-06T01:27:26.362Z,83.60
2023-03-06T01:30:02.693Z,85.43
2023-03-06T01:32:43.044Z,89.97
2023-03-06T01:35:20.995Z,91.60
2023-03-06T01:37:57.421Z,94.07
2023-03-06T01:40:39.971Z,89.20
2023-03-06T01:43:41.900Z,89.97
2023-03-06T01:46:43.670Z,90.65
2023-03-06T01:49:49.506Z,83.55
2023-03-06T01:52:26.237Z,87.03
2023-03-06T01:55:07.784Z,87.82
2023-03-06T01:57:51.445Z,89.00
2023-03-06T02:00:32.696Z,84.25
2023-03-06T02:03:15.498Z,74.22
2023-03-06T02:05:55.154Z,79.50
2023-03-06T02:08:32.421Z,76.80
2023-03-06T02:11:22.390Z,74.57
2023-03-06T02:14:02.323Z,75.00
2023-03-06T02:16:50.286Z,74.57
2023-03-06T02:19:42.354Z,71.75
2023-03-06T02:22:22.198Z,74.43
2023-03-06T02:25:09.875Z,73.72
2023-03-06T02:27:51.895Z,75.47
2023-03-06T02:30:35.500Z,72.40
2023-03-06T02:33:15.313Z,78.63
2023-03-06T02:35:57.275Z,76.93
2023-03-06T02:38:41.244Z,70.97
2023-03-06T02:41:20.585Z,74.47
2023-03-06T02:44:07.699Z,76.05
2023-03-06T02:46:53.154Z,77.53
2023-03-06T02:49:31.053Z,74.38
2023-03-06T02:52:08.313Z,71.65
2023-03-06T02:54:43.397Z,75.53
2023-03-06T02:57:28.228Z,70.70
2023-03-06T03:00:16.510Z,75.65
2023-03-06T03:02:54.979Z,75.68
2023-03-06T03:05:51.184Z,78.55
2023-03-06T03:11:24.435Z,75.28
2023-03-06T03:14:03.835Z,78.53
2023-03-06T03:16:53.134Z,76.70
2023-03-06T03:19:35.402Z,78.70
2023-03-06T03:22:19.421Z,78.70
2023-03-06T03:24:54.886Z,77.40
2023-03-06T03:27:30.043Z,76.18
2023-03-06T03:30:08.882Z,77.53
2023-03-06T03:32:54.315Z,79.35
2023-03-06T03:35:31.452Z,81.05
2023-03-06T03:38:10.484Z,79.13
2023-03-06T03:40:46.917Z,76.63
2023-03-06T03:43:28.849Z,79.38
2023-03-06T03:46:11.950Z,79.55
2023-03-06T03:48:59.735Z,83.18
2023-03-06T03:51:40.819Z,80.45
2023-03-06T03:54:19.087Z,80.28
2023-03-06T03:57:02.547Z,82.53
2023-03-06T03:59:41.764Z,78.40
2023-03-06T04:02:41.815Z,80.22
2023-03-06T04:05:38.593Z,84.55
2023-03-06T04:08:27.510Z,82.20
2023-03-06T04:11:07.860Z,85.63
2023-03-06T04:13:46.116Z,82.93
2023-03-06T04:16:36.064Z,85.18
2023-03-06T04:19:25.947Z,74.38
2023-03-06T04:22:02.481Z,82.38
2023-03-06T04:24:47.853Z,80.18
2023-03-06T04:27:28.358Z,80.05
2023-03-06T04:30:10.763Z,82.07
2023-03-06T04:33:05.248Z,73.25
2023-03-06T04:35:42.842Z,77.25
2023-03-06T04:38:37.492Z,80.55
2023-03-06T04:41:17.816Z,81.35
2023-03-06T04:44:01.593Z,84.40
2023-03-06T04:46:42.667Z,82.63
2023-03-06T04:49:17.765Z,80.45
2023-03-06T04:51:50.933Z,81.85
2023-03-06T04:54:30.103Z,82.05
2023-03-06T04:57:04.200Z,77.70
2023-03-06T04:59:42.430Z,88.90
2023-03-06T05:02:18.264Z,87.30
2023-03-06T05:04:57.758Z,75.97
2023-03-06T05:07:51.709Z,84.47
2023-03-06T05:10:27.053Z,76.45
2023-03-06T05:13:07.950Z,74.75
2023-03-06T05:15:46.997Z,79.55
2023-03-06T05:18:23.125Z,73.50
2023-03-06T05:21:02.360Z,75.93
2023-03-06T05:23:43.351Z,75.28
2023-03-06T05:31:55.701Z,71.00
2023-03-06T05:34:31.786Z,77.65
2023-03-06T05:37:06.996Z,74.53
2023-03-06T05:39:58.021Z,72.30
2023-03-06T05:42:52.916Z,75.07
2023-03-06T05:45:33.374Z,84.22
2023-03-06T05:48:16.515Z,76.28
2023-03-06T05:51:06.239Z,70.07
2023-03-06T05:53:42.962Z,74.63
2023-03-06T05:56:20.864Z,78.97
2023-03-06T05:59:09.784Z,74.55
2023-03-06T06:01:45.489Z,73.80
2023-03-06T06:04:33.562Z,74.80
2023-03-06T06:07:08.027Z,75.97
2023-03-06T06:09:40.221Z,77.63
2023-03-06T06:12:17.649Z,72.53
2023-03-06T06:15:04.616Z,69.97
2023-03-06T06:17:46.685Z,70.88
2023-03-06T06:20:24.319Z,72.55
2023-03-06T06:22:56.167Z,66.95
2023-03-06T06:25:34.192Z,66.50
2023-03-06T06:28:08.652Z,67.05
2023-03-06T06:30:56.315Z,67.60
2023-03-06T06:33:30.565Z,60.35
2023-03-06T06:36:09.566Z,57.97
2023-03-06T06:38:46.885Z,44.28
2023-03-06T06:41:50.633Z,39.80
2023-03-06T06:44:22.065Z,37.05
2023-03-06T06:47:24.530Z,37.72
2023-03-06T06:50:03.960Z,41.03
2023-03-06T06:52:43.860Z,44.42
2023-03-06T06:55:19.880Z,49.97
2023-03-06T06:58:01.332Z,48.30
2023-03-06T07:00:40.230Z,48.83
2023-03-06T07:03:30.137Z,46.95
2023-03-06T07:06:07.709Z,46.83
2023-03-06T07:08:39.405Z,45.75
2023-03-06T07:11:29.114Z,43.17
2023-03-06T07:14:09.312Z,43.50
2023-03-06T07:16:44.220Z,39.33
2023-03-06T07:19:29.697Z,33.92
2023-03-06T07:22:24.174Z,38.13
2023-03-06T07:25:00.771Z,32.22
2023-03-06T07:27:42.572Z,36.53
2023-03-06T07:30:18.518Z,30.85
2023-03-06T07:32:55.856Z,26.27
2023-03-06T07:35:45.245Z,49.63
2023-03-06T07:38:24.664Z,21.70
2023-03-06T07:41:01.084Z,26.48
2023-03-06T07:43:35.805Z,22.77
2023-03-06T07:46:20.860Z,20.95
2023-03-06T07:48:57.807Z,19.00
2023-03-06T07:51:36.473Z,18.88
2023-03-06T07:54:14.990Z,20.58
2023-03-06T07:56:46.836Z,21.20
2023-03-06T07:59:21.326Z,17.40
2023-03-06T08:01:57.237Z,17.40
2023-03-06T08:04:36.226Z,15.15
2023-03-06T08:07:20.970Z,17.50
2023-03-06T08:09:58.733Z,17.83
2023-03-06T08:12:39.097Z,21.65
2023-03-06T08:15:26.549Z,13.90
2023-03-06T08:18:10.697Z,18.48
2023-03-06T08:20:43.219Z,11.88
2023-03-06T08:23:33.991Z,13.10
2023-03-06T08:26:13.086Z,18.08
2023-03-06T08:28:51.163Z,12.48
2023-03-06T08:31:31.761Z,11.30
2023-03-06T08:34:09.973Z,15.57
2023-03-06T08:36:52.596Z,18.40
2023-03-06T08:39:40.566Z,14.65
2023-03-06T08:42:20.844Z,14.52
2023-03-06T08:45:01.053Z,17.10
2023-03-06T08:47:39.579Z,14.73
2023-03-06T08:50:32.556Z,16.27
2023-03-06T08:53:10.679Z,14.60
2023-03-06T08:56:05.559Z,15.40
2023-03-06T08:58:46.629Z,15.55
2023-03-06T09:01:25.103Z,13.35
2023-03-06T09:03:59.583Z,17.88
2023-03-06T09:06:40.957Z,15.73
2023-03-06T09:09:21.135Z,17.45
2023-03-06T09:12:01.138Z,15.73
2023-03-06T09:14:40.891Z,14.10
2023-03-06T09:17:17.495Z,15.77
2023-03-06T09:19:55.372Z,27.42
2023-03-06T09:22:42.716Z,61.42
2023-03-06T09:25:24.209Z,17.58
2023-03-06T09:28:11.338Z,15.80
2023-03-06T09:30:54.481Z,19.42
2023-03-06T09:33:29.527Z,16.75
2023-03-06T09:36:11.273Z,23.23
2023-03-06T09:38:48.342Z,18.15
2023-03-06T09:41:38.721Z,55.42
2023-03-06T09:44:29.053Z,44.57
2023-03-06T09:48:02.490Z,17.88
2023-03-06T09:50:55.551Z,18.80
2023-03-06T09:53:46.305Z,15.57
2023-03-06T09:56:23.596Z,13.83
2023-03-06T09:59:04.946Z,15.40
2023-03-06T10:01:58.769Z,23.52
2023-03-06T10:04:42.864Z,18.90
2023-03-06T10:07:26.889Z,27.73
2023-03-06T10:10:11.972Z,17.88
2023-03-06T10:13:04.755Z,13.55
2023-03-06T10:15:43.698Z,15.20
2023-03-06T10:21:51.495Z,18.40
2023-03-06T10:25:04.626Z,15.73
2023-03-06T10:27:52.998Z,17.10
2023-03-06T10:30:50.939Z,16.48
2023-03-06T10:33:47.128Z,16.85
2023-03-06T10:36:25.706Z,16.73
2023-03-06T10:39:07.809Z,19.30
2023-03-06T10:41:45.296Z,17.67
2023-03-06T10:44:29.168Z,18.08
2023-03-06T10:47:08.105Z,15.80
2023-03-06T10:50:06.674Z,17.98
2023-03-06T10:52:44.032Z,21.83
2023-03-06T10:55:41.843Z,16.45
2023-03-06T10:58:30.609Z,17.15
2023-03-06T11:01:12.538Z,16.67
2023-03-06T11:03:58.076Z,15.23
2023-03-06T11:06:44.146Z,14.27
2023-03-06T11:09:26.018Z,15.55
2023-03-06T11:12:28.343Z,16.73
2023-03-06T11:15:22.698Z,23.98
2023-03-06T11:18:09.273Z,18.08
2023-03-06T11:20:56.940Z,16.00
2023-03-06T11:24:15.226Z,18.95
2023-03-06T11:27:08.625Z,20.65
2023-03-06T11:29:48.169Z,19.40
2023-03-06T11:32:36.311Z,15.57
2023-03-06T11:35:29.879Z,16.33
2023-03-06T11:38:15.720Z,17.30
2023-03-06T11:41:04.387Z,15.82
2023-03-06T11:43:42.792Z,17.10
2023-03-06T11:46:25.577Z,18.30
2023-03-06T11:49:12.545Z,18.38
2023-03-06T11:51:55.141Z,15.88
2023-03-06T11:54:32.454Z,14.68
2023-03-06T11:57:26.875Z,15.10
2023-03-06T12:00:23.747Z,19.80
2023-03-06T12:03:30.807Z,17.80
2023-03-06T12:06:20.055Z,16.35
2023-03-06T12:09:10.156Z,15.18
2023-03-06T12:11:50.576Z,15.07
2023-03-06T12:14:54.185Z,20.65
2023-03-06T12:18:00.658Z,17.90
2023-03-06T12:21:11.071Z,19.40
2023-03-06T12:24:07.368Z,21.80
2023-03-06T12:27:02.968Z,14.55
2023-03-06T12:30:02.397Z,12.20
2023-03-06T12:32:59.379Z,14.05
2023-03-06T12:36:24.990Z,16.25
2023-03-06T12:39:24.483Z,14.40
2023-03-06T12:42:47.725Z,15.70
2023-03-06T12:45:34.224Z,14.20
2023-03-06T12:48:08.880Z,11.48
2023-03-06T12:50:57.340Z,15.57
2023-03-06T12:53:32.954Z,16.52
2023-03-06T12:56:07.950Z,14.98
2023-03-06T12:58:55.558Z,17.33
2023-03-06T13:02:09.241Z,15.00
2023-03-06T13:05:10.978Z,16.00
2023-03-06T13:08:05.264Z,15.15
2023-03-06T13:10:42.926Z,16.15
2023-03-06T13:13:34.986Z,17.88
2023-03-06T13:16:28.925Z,17.42
2023-03-06T13:19:23.272Z,14.88
2023-03-06T13:22:22.116Z,13.95
2023-03-06T13:25:40.030Z,15.45
2023-03-06T13:28:30.341Z,12.60
2023-03-06T13:31:18.112Z,12.77
2023-03-06T13:34:09.876Z,11.88
2023-03-06T13:36:45.303Z,12.57
2023-03-06T13:39:26.825Z,18.25
2023-03-06T13:42:02.937Z,15.95
2023-03-06T13:44:55.336Z,12.60
2023-03-06T13:48:14.195Z,12.85
2023-03-06T13:50:45.627Z,13.85
2023-03-06T13:54:07.756Z,14.63
2023-03-06T13:57:40.559Z,13.57
2023-03-06T14:01:04.491Z,17.08
2023-03-06T14:04:09.247Z,20.02
2023-03-06T14:07:13.132Z,16.75
2023-03-06T14:10:06.084Z,16.60
2023-03-06T14:12:48.064Z,19.15
2023-03-06T14:15:28.444Z,14.63
2023-03-06T14:18:05.942Z,15.10
2023-03-06T14:20:49.806Z,17.80
2023-03-06T14:23:44.020Z,18.48
2023-03-06T14:26:23.333Z,18.33
2023-03-06T14:29:06.625Z,16.42
2023-03-06T14:31:46.383Z,18.27
2023-03-06T14:34:27.811Z,15.15
2023-03-06T14:37:08.032Z,16.65
2023-03-06T14:39:50.327Z,11.80
2023-03-06T14:42:24.318Z,14.07
2023-03-06T14:45:28.125Z,15.95
2023-03-06T14:48:08.488Z,15.10
2023-03-06T14:50:49.481Z,39.38
2023-03-06T14:53:23.904Z,23.95
2023-03-06T14:56:06.446Z,15.55
2023-03-06T14:58:48.413Z,13.15
2023-03-06T15:01:45.842Z,19.58
2023-03-06T15:04:35.271Z,15.30
2023-03-06T15:07:16.844Z,15.90
2023-03-06T15:09:53.808Z,12.40
2023-03-06T15:12:46.466Z,18.55
2023-03-06T15:19:03.234Z,15.75
2023-03-06T15:21:43.206Z,26.58
2023-03-06T15:24:39.137Z,19.25
2023-03-06T15:27:25.646Z,17.05
2023-03-06T15:30:05.644Z,13.48
2023-03-06T15:32:52.227Z,15.52
2023-03-06T15:35:53.068Z,14.52
2023-03-06T15:38:40.273Z,11.77
2023-03-06T15:41:24.821Z,14.90
2023-03-06T15:44:03.427Z,15.48
2023-03-06T15:46:38.347Z,16.52
2023-03-06T15:49:24.003Z,17.48
2023-03-06T15:52:09.542Z,32.33
2023-03-06T15:54:44.823Z,39.53
2023-03-06T15:57:25.649Z,23.70
2023-03-06T15:59:56.691Z,34.92
2023-03-06T16:05:03.189Z,87.95
2023-03-06T16:07:49.675Z,82.10
2023-03-06T16:10:30.089Z,48.85
2023-03-06T16:13:13.349Z,29.88
2023-03-06T16:15:57.570Z,26.83
2023-03-06T16:18:27.941Z,30.13
2023-03-06T16:21:02.275Z,34.25
2023-03-06T16:23:50.910Z,34.60
2023-03-06T16:29:32.006Z,33.25
2023-03-06T16:32:06.873Z,34.20
2023-03-06T16:34:39.342Z,33.15
2023-03-06T16:37:19.666Z,32.47
2023-03-06T16:40:07.034Z,40.03
2023-03-06T16:42:42.367Z,39.53
2023-03-06T16:45:21.391Z,37.80
2023-03-06T16:47:54.701Z,34.92
2023-03-06T16:50:32.205Z,40.45
2023-03-06T16:53:16.183Z,39.35
2023-03-06T16:56:00.357Z,50.60
2023-03-06T16:58:38.218Z,38.00
2023-03-06T17:01:12.045Z,44.97
2023-03-06T17:03:47.649Z,41.72
2023-03-06T17:06:21.064Z,43.45
2023-03-06T17:08:59.728Z,45.20
2023-03-06T17:11:46.122Z,47.45
2023-03-06T17:14:24.304Z,40.40
2023-03-06T17:16:59.263Z,43.50
2023-03-06T17:19:31.054Z,44.55
2023-03-06T17:22:07.233Z,49.22
2023-03-06T17:24:47.597Z,41.08
2023-03-06T17:27:31.070Z,44.03
2023-03-06T17:30:07.344Z,40.67
2023-03-06T17:32:37.766Z,45.35
2023-03-06T17:35:15.888Z,40.78
2023-03-06T17:37:50.008Z,54.83
2023-03-06T17:40:31.921Z,62.20
2023-03-06T17:43:06.105Z,60.38
2023-03-06T17:45:55.708Z,60.50
2023-03-06T17:48:28.260Z,58.85
2023-03-06T17:51:06.140Z,63.33
2023-03-06T17:53:37.093Z,70.32
2023-03-06T17:59:02.532Z,64.38
2023-03-06T18:01:41.201Z,68.88
2023-03-06T18:04:22.022Z,75.40
2023-03-06T18:07:02.753Z,76.72
2023-03-06T18:09:32.816Z,90.32
2023-03-06T18:12:07.536Z,80.03
2023-03-06T18:14:43.320Z,85.60
2023-03-06T18:17:16.909Z,77.68
2023-03-06T18:19:54.387Z,67.82
2023-03-06T18:22:45.046Z,75.28
2023-03-06T18:25:19.700Z,65.85
2023-03-06T18:27:57.931Z,75.18
2023-03-06T18:30:36.126Z,68.18
2023-03-06T18:33:10.261Z,57.70
2023-03-06T18:35:44.341Z,52.97
2023-03-06T18:38:17.901Z,38.67
2023-03-06T18:40:55.487Z,36.95
2023-03-06T18:43:31.333Z,42.58
2023-03-06T18:46:17.821Z,42.22
2023-03-06T18:48:52.811Z,39.33
2023-03-06T18:51:29.286Z,40.95
2023-03-06T18:54:02.891Z,36.17
2023-03-06T18:56:38.695Z,35.28
2023-03-06T18:59:10.859Z,35.42
2023-03-06T19:01:49.797Z,32.00
2023-03-06T19:04:23.865Z,33.45
2023-03-06T19:07:00.248Z,29.77
2023-03-06T19:09:31.991Z,25.70
2023-03-06T19:12:07.144Z,30.15
2023-03-06T19:14:44.340Z,31.27
2023-03-06T19:17:22.847Z,27.98
2023-03-06T19:19:58.984Z,32.25
2023-03-06T19:22:37.691Z,34.95
2023-03-06T19:25:09.896Z,32.22
2023-03-06T19:27:49.789Z,30.70
2023-03-06T19:30:25.854Z,36.05
2023-03-06T19:33:10.615Z,29.40
2023-03-06T19:35:45.419Z,35.15
2023-03-06T19:38:28.896Z,34.55
2023-03-06T19:41:07.119Z,30.02
2023-03-06T19:43:47.081Z,28.05
2023-03-06T19:46:27.033Z,32.42
2023-03-06T19:49:16.320Z,33.15
2023-03-06T19:51:51.227Z,35.55
2023-03-06T19:54:23.847Z,33.88
2023-03-06T19:57:06.325Z,33.15
2023-03-06T19:59:40.533Z,36.03
2023-03-06T20:02:26.731Z,39.65
2023-03-06T20:05:03.180Z,36.00
2023-03-06T20:07:35.662Z,37.53
2023-03-06T20:10:09.410Z,50.58
2023-03-06T20:13:00.757Z,48.10
2023-03-06T20:15:35.263Z,46.28
2023-03-06T20:18:20.505Z,41.40
2023-03-06T20:21:10.593Z,45.88
2023-03-06T20:23:45.687Z,41.28
2023-03-06T20:26:20.481Z,34.45
2023-03-06T20:28:55.640Z,38.50
2023-03-06T20:31:30.963Z,35.30
2023-03-06T20:34:06.171Z,32.97
2023-03-06T20:36:50.861Z,44.53
2023-03-06T20:39:28.717Z,36.67
2023-03-06T20:42:00.912Z,31.20
2023-03-06T20:44:36.373Z,38.33
2023-03-06T20:47:14.270Z,39.30
2023-03-06T20:49:51.535Z,46.45
2023-03-06T20:52:32.096Z,47.22
2023-03-06T20:55:07.373Z,47.75
2023-03-06T20:57:42.233Z,66.75
2023-03-06T21:00:21.117Z,58.60
2023-03-06T21:03:00.393Z,67.40
2023-03-06T21:05:31.046Z,66.20
2023-03-06T21:08:09.274Z,62.95
2023-03-06T21:10:51.512Z,63.92
2023-03-06T21:13:25.282Z,54.17
2023-03-06T21:15:59.986Z,54.08
2023-03-06T21:18:32.445Z,57.08
2023-03-06T21:21:04.436Z,59.53
2023-03-06T21:23:43.921Z,55.22
2023-03-06T21:26:16.264Z,56.47
2023-03-06T21:28:53.856Z,61.17
2023-03-06T21:31:33.580Z,65.15
2023-03-06T21:34:14.336Z,76.10
2023-03-06T21:36:48.778Z,75.60
2023-03-06T21:39:35.561Z,81.80
2023-03-06T21:42:10.875Z,75.05
2023-03-06T21:44:44.864Z,79.38
2023-03-06T21:47:28.571Z,91.28
2023-03-06T21:50:08.721Z,78.68
2023-03-06T21:52:54.447Z,67.13
2023-03-06T21:55:49.667Z,45.95
2023-03-06T21:58:27.469Z,49.05
2023-03-06T22:01:11.937Z,48.05
2023-03-06T22:03:47.701Z,40.83
2023-03-06T22:06:25.568Z,40.80
2023-03-06T22:09:04.808Z,43.70
2023-03-06T22:11:55.030Z,39.25
2023-03-06T22:14:40.645Z,36.20
2023-03-06T22:17:18.259Z,45.08
2023-03-06T22:19:52.238Z,53.35
2023-03-06T22:28:01.232Z,38.40
2023-03-06T22:30:40.583Z,35.83
2023-03-06T22:33:15.840Z,36.88
2023-03-06T22:36:16.136Z,37.63
2023-03-06T22:41:49.235Z,34.28
2023-03-06T22:44:28.325Z,34.03
2023-03-06T22:47:07.532Z,39.13
2023-03-06T22:49:41.050Z,34.20
2023-03-06T22:52:15.192Z,39.03
2023-03-06T22:54:56.778Z,35.72
2023-03-06T22:57:33.462Z,38.33
2023-03-06T23:00:24.201Z,38.95
2023-03-06T23:03:05.027Z,39.45
2023-03-06T23:05:36.965Z,36.92
2023-03-06T23:08:19.993Z,36.88
2023-03-06T23:11:00.709Z,37.42
2023-03-06T23:14:01.841Z,38.55
2023-03-06T23:17:02.804Z,32.45
2023-03-06T23:20:16.829Z,33.75
2023-03-06T23:23:15.129Z,35.38
2023-03-06T23:25:52.641Z,39.85
2023-03-06T23:28:30.161Z,36.67
2023-03-06T23:31:11.128Z,37.10
2023-03-06T23:34:05.716Z,34.25
2023-03-06T23:36:46.983Z,33.83
2023-03-06T23:39:23.229Z,30.50
2023-03-06T23:42:05.469Z,31.80
2023-03-06T23:44:42.341Z,28.50
2023-03-06T23:47:21.029Z,27.30
2023-03-06T23:50:07.578Z,32.42
2023-03-06T23:53:17.231Z,35.33
2023-03-06T23:55:58.089Z,32.85
2023-03-06T23:58:35.516Z,36.72
